sensor_id;sensor_type;location;lat;lon;timestamp;P1;durP1;ratioP1;P2;durP2;ratioP2
67028;SDS011;53934;52.142;11.738;2022-12-10T00:01:41;24.17;;;10.48;;
67028;SDS011;53934;52.142;11.738;2022-12-10T00:04:08;27.45;;;11.73;;
67028;SDS011;53934;52.142;11.738;2022-12-10T00:06:37;25.38;;;11.93;;
67028;SDS011;53934;52.142;11.738;2022-12-10T00:09:05;22.73;;;10.75;;
67028;SDS011;53934;52.142;11.738;2022-12-10T00:11:33;22.20;;;9.85;;
67028;SDS011;53934;52.142;11.738;2022-12-10T00:14:00;22.58;;;10.82;;
67028;SDS011;53934;52.142;11.738;2022-12-10T00:16:27;22.90;;;11.15;;
67028;SDS011;53934;52.142;11.738;2022-12-10T00:18:55;24.30;;;10.55;;
67028;SDS011;53934;52.142;11.738;2022-12-10T00:21:23;23.00;;;11.52;;
67028;SDS011;53934;52.142;11.738;2022-12-10T00:23:52;27.65;;;12.63;;
67028;SDS011;53934;52.142;11.738;2022-12-10T00:26:20;28.98;;;12.57;;
67028;SDS011;53934;52.142;11.738;2022-12-10T00:28:48;26.08;;;12.52;;
67028;SDS011;53934;52.142;11.738;2022-12-10T00:31:16;28.80;;;12.70;;
67028;SDS011;53934;52.142;11.738;2022-12-10T00:33:44;27.67;;;12.30;;
67028;SDS011;53934;52.142;11.738;2022-12-10T00:36:13;25.90;;;12.20;;
67028;SDS011;53934;52.142;11.738;2022-12-10T00:38:42;23.25;;;10.68;;
67028;SDS011;53934;52.142;11.738;2022-12-10T00:41:11;23.80;;;10.88;;
67028;SDS011;53934;52.142;11.738;2022-12-10T00:43:38;27.40;;;12.02;;
67028;SDS011;53934;52.142;11.738;2022-12-10T00:46:05;26.70;;;12.55;;
67028;SDS011;53934;52.142;11.738;2022-12-10T00:48:32;28.33;;;12.48;;
67028;SDS011;53934;52.142;11.738;2022-12-10T00:50:59;32.95;;;12.38;;
67028;SDS011;53934;52.142;11.738;2022-12-10T00:53:27;27.23;;;12.43;;
67028;SDS011;53934;52.142;11.738;2022-12-10T00:55:55;25.25;;;12.63;;
67028;SDS011;53934;52.142;11.738;2022-12-10T00:58:26;28.42;;;13.00;;
67028;SDS011;53934;52.142;11.738;2022-12-10T01:00:53;31.95;;;13.35;;
67028;SDS011;53934;52.142;11.738;2022-12-10T01:03:20;33.75;;;12.77;;
67028;SDS011;53934;52.142;11.738;2022-12-10T01:05:46;28.42;;;12.55;;
67028;SDS011;53934;52.142;11.738;2022-12-10T01:08:13;28.40;;;13.68;;
67028;SDS011;53934;52.142;11.738;2022-12-10T01:10:39;29.38;;;13.35;;
67028;SDS011;53934;52.142;11.738;2022-12-10T01:13:06;29.70;;;12.43;;
67028;SDS011;53934;52.142;11.738;2022-12-10T01:15:37;30.67;;;12.70;;
67028;SDS011;53934;52.142;11.738;2022-12-10T01:18:05;27.05;;;12.32;;
67028;SDS011;53934;52.142;11.738;2022-12-10T01:20:34;28.13;;;12.63;;
67028;SDS011;53934;52.142;11.738;2022-12-10T01:23:01;26.33;;;12.65;;
67028;SDS011;53934;52.142;11.738;2022-12-10T01:25:27;27.08;;;12.60;;
67028;SDS011;53934;52.142;11.738;2022-12-10T01:27:54;25.70;;;12.38;;
67028;SDS011;53934;52.142;11.738;2022-12-10T01:30:20;26.00;;;11.77;;
67028;SDS011;53934;52.142;11.738;2022-12-10T01:32:48;27.23;;;12.35;;
67028;SDS011;53934;52.142;11.738;2022-12-10T01:35:14;34.28;;;14.52;;
67028;SDS011;53934;52.142;11.738;2022-12-10T01:37:41;27.13;;;12.93;;
67028;SDS011;53934;52.142;11.738;2022-12-10T01:40:08;23.42;;;12.13;;
67028;SDS011;53934;52.142;11.738;2022-12-10T01:42:35;28.58;;;13.23;;
67028;SDS011;53934;52.142;11.738;2022-12-10T01:45:07;26.90;;;11.52;;
67028;SDS011;53934;52.142;11.738;2022-12-10T01:47:36;27.25;;;12.05;;
67028;SDS011;53934;52.142;11.738;2022-12-10T01:50:06;30.60;;;12.50;;
67028;SDS011;53934;52.142;11.738;2022-12-10T01:52:35;28.85;;;12.95;;
67028;SDS011;53934;52.142;11.738;2022-12-10T01:55:02;24.92;;;11.10;;
67028;SDS011;53934;52.142;11.738;2022-12-10T01:57:35;28.58;;;12.02;;
67028;SDS011;53934;52.142;11.738;2022-12-10T02:00:03;29.55;;;12.02;;
67028;SDS011;53934;52.142;11.738;2022-12-10T02:02:37;28.13;;;12.43;;
67028;SDS011;53934;52.142;11.738;2022-12-10T02:05:12;26.80;;;11.20;;
67028;SDS011;53934;52.142;11.738;2022-12-10T02:07:49;24.95;;;12.25;;
67028;SDS011;53934;52.142;11.738;2022-12-10T02:10:25;28.85;;;12.68;;
67028;SDS011;53934;52.142;11.738;2022-12-10T02:13:01;32.13;;;12.25;;
67028;SDS011;53934;52.142;11.738;2022-12-10T02:15:34;36.15;;;14.10;;
67028;SDS011;53934;52.142;11.738;2022-12-10T02:18:05;37.55;;;15.38;;
67028;SDS011;53934;52.142;11.738;2022-12-10T02:20:37;33.65;;;13.48;;
67028;SDS011;53934;52.142;11.738;2022-12-10T02:23:08;39.83;;;15.80;;
67028;SDS011;53934;52.142;11.738;2022-12-10T02:25:38;39.05;;;14.40;;
67028;SDS011;53934;52.142;11.738;2022-12-10T02:28:09;42.85;;;15.25;;
67028;SDS011;53934;52.142;11.738;2022-12-10T02:30:44;38.33;;;14.77;;
67028;SDS011;53934;52.142;11.738;2022-12-10T02:33:14;39.47;;;15.10;;
67028;SDS011;53934;52.142;11.738;2022-12-10T02:35:43;39.10;;;14.80;;
67028;SDS011;53934;52.142;11.738;2022-12-10T02:38:16;49.42;;;15.77;;
67028;SDS011;53934;52.142;11.738;2022-12-10T02:40:47;40.08;;;14.90;;
67028;SDS011;53934;52.142;11.738;2022-12-10T02:43:18;43.03;;;15.03;;
67028;SDS011;53934;52.142;11.738;2022-12-10T02:45:49;39.35;;;15.18;;
67028;SDS011;53934;52.142;11.738;2022-12-10T02:48:17;37.20;;;14.50;;
67028;SDS011;53934;52.142;11.738;2022-12-10T02:50:44;34.38;;;14.35;;
67028;SDS011;53934;52.142;11.738;2022-12-10T02:53:11;40.30;;;14.30;;
67028;SDS011;53934;52.142;11.738;2022-12-10T02:55:42;34.42;;;13.43;;
67028;SDS011;53934;52.142;11.738;2022-12-10T02:58:23;33.35;;;14.35;;
67028;SDS011;53934;52.142;11.738;2022-12-10T03:00:58;36.90;;;15.32;;
67028;SDS011;53934;52.142;11.738;2022-12-10T03:03:36;33.28;;;13.85;;
67028;SDS011;53934;52.142;11.738;2022-12-10T03:06:11;31.35;;;12.20;;
67028;SDS011;53934;52.142;11.738;2022-12-10T03:08:46;31.38;;;13.38;;
67028;SDS011;53934;52.142;11.738;2022-12-10T03:11:17;29.92;;;12.65;;
67028;SDS011;53934;52.142;11.738;2022-12-10T03:13:48;33.15;;;13.50;;
67028;SDS011;53934;52.142;11.738;2022-12-10T03:16:22;37.50;;;13.07;;
67028;SDS011;53934;52.142;11.738;2022-12-10T03:18:52;32.88;;;13.40;;
67028;SDS011;53934;52.142;11.738;2022-12-10T03:21:23;29.88;;;12.20;;
67028;SDS011;53934;52.142;11.738;2022-12-10T03:23:53;27.80;;;12.35;;
67028;SDS011;53934;52.142;11.738;2022-12-10T03:26:20;29.20;;;12.52;;
67028;SDS011;53934;52.142;11.738;2022-12-10T03:28:49;30.35;;;12.63;;
67028;SDS011;53934;52.142;11.738;2022-12-10T03:31:18;31.00;;;11.65;;
67028;SDS011;53934;52.142;11.738;2022-12-10T03:33:47;32.90;;;12.55;;
67028;SDS011;53934;52.142;11.738;2022-12-10T03:36:15;31.15;;;12.45;;
67028;SDS011;53934;52.142;11.738;2022-12-10T03:38:44;31.45;;;12.77;;
67028;SDS011;53934;52.142;11.738;2022-12-10T03:41:11;34.90;;;13.48;;
67028;SDS011;53934;52.142;11.738;2022-12-10T03:43:49;38.10;;;14.65;;
67028;SDS011;53934;52.142;11.738;2022-12-10T03:46:16;33.63;;;13.27;;
67028;SDS011;53934;52.142;11.738;2022-12-10T03:48:43;36.10;;;14.10;;
67028;SDS011;53934;52.142;11.738;2022-12-10T03:51:11;29.63;;;12.57;;
67028;SDS011;53934;52.142;11.738;2022-12-10T03:53:37;37.13;;;13.52;;
67028;SDS011;53934;52.142;11.738;2022-12-10T03:56:04;32.13;;;12.18;;
67028;SDS011;53934;52.142;11.738;2022-12-10T03:58:30;28.70;;;12.25;;
67028;SDS011;53934;52.142;11.738;2022-12-10T04:00:57;24.27;;;11.18;;
67028;SDS011;53934;52.142;11.738;2022-12-10T04:03:23;28.98;;;12.32;;
67028;SDS011;53934;52.142;11.738;2022-12-10T04:05:50;31.30;;;12.50;;
67028;SDS011;53934;52.142;11.738;2022-12-10T04:08:17;28.75;;;13.38;;
67028;SDS011;53934;52.142;11.738;2022-12-10T04:10:44;34.25;;;14.00;;
67028;SDS011;53934;52.142;11.738;2022-12-10T04:13:10;31.50;;;13.88;;
67028;SDS011;53934;52.142;11.738;2022-12-10T04:15:55;32.88;;;12.45;;
67028;SDS011;53934;52.142;11.738;2022-12-10T04:18:39;27.52;;;12.27;;
67028;SDS011;53934;52.142;11.738;2022-12-10T04:21:06;36.65;;;13.77;;
67028;SDS011;53934;52.142;11.738;2022-12-10T04:23:51;32.63;;;13.52;;
67028;SDS011;53934;52.142;11.738;2022-12-10T04:26:35;30.70;;;13.30;;
67028;SDS011;53934;52.142;11.738;2022-12-10T04:29:20;30.38;;;13.40;;
67028;SDS011;53934;52.142;11.738;2022-12-10T04:31:48;36.08;;;13.85;;
67028;SDS011;53934;52.142;11.738;2022-12-10T04:34:15;32.42;;;13.57;;
67028;SDS011;53934;52.142;11.738;2022-12-10T04:36:41;33.85;;;13.95;;
67028;SDS011;53934;52.142;11.738;2022-12-10T04:39:09;34.13;;;14.05;;
67028;SDS011;53934;52.142;11.738;2022-12-10T04:41:37;29.60;;;12.80;;
67028;SDS011;53934;52.142;11.738;2022-12-10T04:44:04;28.02;;;11.90;;
67028;SDS011;53934;52.142;11.738;2022-12-10T04:46:31;27.95;;;11.20;;
67028;SDS011;53934;52.142;11.738;2022-12-10T04:48:58;26.55;;;12.15;;
67028;SDS011;53934;52.142;11.738;2022-12-10T04:51:24;25.88;;;11.35;;
67028;SDS011;53934;52.142;11.738;2022-12-10T04:53:51;36.15;;;12.35;;
67028;SDS011;53934;52.142;11.738;2022-12-10T04:56:19;37.03;;;12.52;;
67028;SDS011;53934;52.142;11.738;2022-12-10T04:58:45;33.88;;;13.15;;
67028;SDS011;53934;52.142;11.738;2022-12-10T05:01:12;27.70;;;12.00;;
67028;SDS011;53934;52.142;11.738;2022-12-10T05:03:39;31.70;;;12.80;;
67028;SDS011;53934;52.142;11.738;2022-12-10T05:06:06;30.05;;;12.35;;
67028;SDS011;53934;52.142;11.738;2022-12-10T05:08:34;31.23;;;13.25;;
67028;SDS011;53934;52.142;11.738;2022-12-10T05:11:01;30.15;;;12.15;;
67028;SDS011;53934;52.142;11.738;2022-12-10T05:13:30;41.92;;;13.70;;
67028;SDS011;53934;52.142;11.738;2022-12-10T05:15:56;32.80;;;11.07;;
67028;SDS011;53934;52.142;11.738;2022-12-10T05:18:23;32.55;;;12.77;;
67028;SDS011;53934;52.142;11.738;2022-12-10T05:20:50;34.10;;;13.25;;
67028;SDS011;53934;52.142;11.738;2022-12-10T05:23:17;37.95;;;13.50;;
67028;SDS011;53934;52.142;11.738;2022-12-10T05:25:59;34.35;;;12.10;;
67028;SDS011;53934;52.142;11.738;2022-12-10T05:28:27;37.58;;;14.23;;
67028;SDS011;53934;52.142;11.738;2022-12-10T05:30:57;39.22;;;13.60;;
67028;SDS011;53934;52.142;11.738;2022-12-10T05:33:24;35.90;;;12.75;;
67028;SDS011;53934;52.142;11.738;2022-12-10T05:35:51;36.20;;;12.52;;
67028;SDS011;53934;52.142;11.738;2022-12-10T05:38:19;33.75;;;13.23;;
67028;SDS011;53934;52.142;11.738;2022-12-10T05:40:45;33.72;;;12.10;;
67028;SDS011;53934;52.142;11.738;2022-12-10T05:43:12;36.42;;;12.95;;
67028;SDS011;53934;52.142;11.738;2022-12-10T05:45:40;34.28;;;12.43;;
67028;SDS011;53934;52.142;11.738;2022-12-10T05:48:07;37.30;;;13.32;;
67028;SDS011;53934;52.142;11.738;2022-12-10T05:50:35;36.65;;;13.93;;
67028;SDS011;53934;52.142;11.738;2022-12-10T05:53:02;30.75;;;12.25;;
67028;SDS011;53934;52.142;11.738;2022-12-10T05:55:29;31.50;;;11.52;;
67028;SDS011;53934;52.142;11.738;2022-12-10T05:57:58;33.97;;;12.88;;
67028;SDS011;53934;52.142;11.738;2022-12-10T06:00:25;28.73;;;11.00;;
67028;SDS011;53934;52.142;11.738;2022-12-10T06:02:53;29.30;;;11.20;;
67028;SDS011;53934;52.142;11.738;2022-12-10T06:05:20;34.53;;;12.63;;
67028;SDS011;53934;52.142;11.738;2022-12-10T06:07:46;34.33;;;12.82;;
67028;SDS011;53934;52.142;11.738;2022-12-10T06:10:13;30.48;;;12.85;;
67028;SDS011;53934;52.142;11.738;2022-12-10T06:12:39;33.67;;;12.98;;
67028;SDS011;53934;52.142;11.738;2022-12-10T06:15:06;33.42;;;13.25;;
67028;SDS011;53934;52.142;11.738;2022-12-10T06:17:33;38.53;;;12.77;;
67028;SDS011;53934;52.142;11.738;2022-12-10T06:20:02;30.30;;;11.95;;
67028;SDS011;53934;52.142;11.738;2022-12-10T06:22:29;33.92;;;12.93;;
67028;SDS011;53934;52.142;11.738;2022-12-10T06:24:56;33.20;;;11.65;;
67028;SDS011;53934;52.142;11.738;2022-12-10T06:27:22;26.83;;;10.90;;
67028;SDS011;53934;52.142;11.738;2022-12-10T06:29:49;28.15;;;11.05;;
67028;SDS011;53934;52.142;11.738;2022-12-10T06:32:15;26.52;;;11.77;;
67028;SDS011;53934;52.142;11.738;2022-12-10T06:34:41;30.00;;;12.25;;
67028;SDS011;53934;52.142;11.738;2022-12-10T06:37:09;29.30;;;12.20;;
67028;SDS011;53934;52.142;11.738;2022-12-10T06:39:36;29.00;;;11.38;;
67028;SDS011;53934;52.142;11.738;2022-12-10T06:42:02;31.08;;;10.82;;
67028;SDS011;53934;52.142;11.738;2022-12-10T06:44:30;29.42;;;10.75;;
67028;SDS011;53934;52.142;11.738;2022-12-10T06:46:57;32.42;;;12.38;;
67028;SDS011;53934;52.142;11.738;2022-12-10T06:49:23;30.70;;;11.77;;
67028;SDS011;53934;52.142;11.738;2022-12-10T06:51:50;30.48;;;13.73;;
67028;SDS011;53934;52.142;11.738;2022-12-10T06:54:17;35.58;;;13.75;;
67028;SDS011;53934;52.142;11.738;2022-12-10T06:56:44;39.80;;;17.23;;
67028;SDS011;53934;52.142;11.738;2022-12-10T06:59:10;44.42;;;19.70;;
67028;SDS011;53934;52.142;11.738;2022-12-10T07:01:37;34.33;;;13.75;;
67028;SDS011;53934;52.142;11.738;2022-12-10T07:04:04;36.35;;;13.95;;
67028;SDS011;53934;52.142;11.738;2022-12-10T07:06:31;35.58;;;13.15;;
67028;SDS011;53934;52.142;11.738;2022-12-10T07:08:58;34.85;;;13.82;;
67028;SDS011;53934;52.142;11.738;2022-12-10T07:11:26;49.25;;;19.02;;
67028;SDS011;53934;52.142;11.738;2022-12-10T07:13:52;45.50;;;20.05;;
67028;SDS011;53934;52.142;11.738;2022-12-10T07:16:19;43.28;;;17.92;;
67028;SDS011;53934;52.142;11.738;2022-12-10T07:18:48;39.65;;;15.70;;
67028;SDS011;53934;52.142;11.738;2022-12-10T07:21:16;47.88;;;18.15;;
67028;SDS011;53934;52.142;11.738;2022-12-10T07:23:44;39.42;;;15.38;;
67028;SDS011;53934;52.142;11.738;2022-12-10T07:26:10;36.42;;;14.23;;
67028;SDS011;53934;52.142;11.738;2022-12-10T07:28:39;30.20;;;11.77;;
67028;SDS011;53934;52.142;11.738;2022-12-10T07:31:06;31.98;;;12.25;;
67028;SDS011;53934;52.142;11.738;2022-12-10T07:33:34;28.27;;;11.85;;
67028;SDS011;53934;52.142;11.738;2022-12-10T07:36:02;30.48;;;11.60;;
67028;SDS011;53934;52.142;11.738;2022-12-10T07:38:29;35.25;;;14.75;;
67028;SDS011;53934;52.142;11.738;2022-12-10T07:40:56;32.65;;;15.60;;
67028;SDS011;53934;52.142;11.738;2022-12-10T07:43:22;38.63;;;15.25;;
67028;SDS011;53934;52.142;11.738;2022-12-10T07:45:50;32.65;;;13.45;;
67028;SDS011;53934;52.142;11.738;2022-12-10T07:48:17;29.20;;;13.30;;
67028;SDS011;53934;52.142;11.738;2022-12-10T07:50:43;33.75;;;11.07;;
67028;SDS011;53934;52.142;11.738;2022-12-10T07:53:10;28.50;;;11.10;;
67028;SDS011;53934;52.142;11.738;2022-12-10T07:55:36;27.73;;;11.52;;
67028;SDS011;53934;52.142;11.738;2022-12-10T07:58:03;33.38;;;11.73;;
67028;SDS011;53934;52.142;11.738;2022-12-10T08:00:29;34.35;;;13.98;;
67028;SDS011;53934;52.142;11.738;2022-12-10T08:02:57;29.05;;;11.93;;
67028;SDS011;53934;52.142;11.738;2022-12-10T08:05:24;31.33;;;13.55;;
67028;SDS011;53934;52.142;11.738;2022-12-10T08:07:50;25.83;;;11.73;;
67028;SDS011;53934;52.142;11.738;2022-12-10T08:10:17;31.45;;;12.70;;
67028;SDS011;53934;52.142;11.738;2022-12-10T08:12:44;33.75;;;13.07;;
67028;SDS011;53934;52.142;11.738;2022-12-10T08:15:10;30.60;;;13.13;;
67028;SDS011;53934;52.142;11.738;2022-12-10T08:17:37;33.80;;;12.95;;
67028;SDS011;53934;52.142;11.738;2022-12-10T08:20:05;32.53;;;13.18;;
67028;SDS011;53934;52.142;11.738;2022-12-10T08:22:32;28.50;;;11.50;;
67028;SDS011;53934;52.142;11.738;2022-12-10T08:25:00;29.85;;;11.93;;
67028;SDS011;53934;52.142;11.738;2022-12-10T08:27:26;30.42;;;12.73;;
67028;SDS011;53934;52.142;11.738;2022-12-10T08:29:53;28.38;;;11.07;;
67028;SDS011;53934;52.142;11.738;2022-12-10T08:32:19;28.00;;;12.50;;
67028;SDS011;53934;52.142;11.738;2022-12-10T08:34:46;29.25;;;12.18;;
67028;SDS011;53934;52.142;11.738;2022-12-10T08:37:14;30.83;;;12.18;;
67028;SDS011;53934;52.142;11.738;2022-12-10T08:39:42;25.58;;;11.90;;
67028;SDS011;53934;52.142;11.738;2022-12-10T08:42:08;29.45;;;11.52;;
67028;SDS011;53934;52.142;11.738;2022-12-10T08:44:35;29.42;;;11.93;;
67028;SDS011;53934;52.142;11.738;2022-12-10T08:47:01;31.35;;;11.48;;
67028;SDS011;53934;52.142;11.738;2022-12-10T08:49:28;29.98;;;12.13;;
67028;SDS011;53934;52.142;11.738;2022-12-10T08:51:54;27.95;;;12.25;;
67028;SDS011;53934;52.142;11.738;2022-12-10T08:54:22;27.33;;;11.07;;
67028;SDS011;53934;52.142;11.738;2022-12-10T08:56:48;26.63;;;11.52;;
67028;SDS011;53934;52.142;11.738;2022-12-10T08:59:15;24.05;;;11.30;;
67028;SDS011;53934;52.142;11.738;2022-12-10T09:01:42;28.50;;;11.43;;
67028;SDS011;53934;52.142;11.738;2022-12-10T09:04:09;28.58;;;11.77;;
67028;SDS011;53934;52.142;11.738;2022-12-10T09:06:35;28.52;;;11.15;;
67028;SDS011;53934;52.142;11.738;2022-12-10T09:09:02;41.80;;;17.25;;
67028;SDS011;53934;52.142;11.738;2022-12-10T09:11:31;38.75;;;15.57;;
67028;SDS011;53934;52.142;11.738;2022-12-10T09:13:59;29.67;;;12.35;;
67028;SDS011;53934;52.142;11.738;2022-12-10T09:16:29;27.73;;;11.75;;
67028;SDS011;53934;52.142;11.738;2022-12-10T09:18:56;26.75;;;11.77;;
67028;SDS011;53934;52.142;11.738;2022-12-10T09:21:23;26.95;;;11.07;;
67028;SDS011;53934;52.142;11.738;2022-12-10T09:23:50;24.00;;;10.85;;
67028;SDS011;53934;52.142;11.738;2022-12-10T09:26:17;26.90;;;11.93;;
67028;SDS011;53934;52.142;11.738;2022-12-10T09:28:45;24.48;;;10.77;;
67028;SDS011;53934;52.142;11.738;2022-12-10T09:31:13;24.02;;;11.13;;
67028;SDS011;53934;52.142;11.738;2022-12-10T09:33:40;28.17;;;12.20;;
67028;SDS011;53934;52.142;11.738;2022-12-10T09:36:08;25.83;;;10.88;;
67028;SDS011;53934;52.142;11.738;2022-12-10T09:38:37;26.88;;;11.40;;
67028;SDS011;53934;52.142;11.738;2022-12-10T09:41:10;26.70;;;10.73;;
67028;SDS011;53934;52.142;11.738;2022-12-10T09:43:55;23.70;;;10.25;;
67028;SDS011;53934;52.142;11.738;2022-12-10T09:46:40;32.35;;;12.23;;
67028;SDS011;53934;52.142;11.738;2022-12-10T09:49:16;26.20;;;11.15;;
67028;SDS011;53934;52.142;11.738;2022-12-10T09:51:47;25.70;;;11.30;;
67028;SDS011;53934;52.142;11.738;2022-12-10T09:54:17;28.80;;;12.35;;
67028;SDS011;53934;52.142;11.738;2022-12-10T09:56:48;25.83;;;10.73;;
67028;SDS011;53934;52.142;11.738;2022-12-10T09:59:19;30.88;;;11.63;;
67028;SDS011;53934;52.142;11.738;2022-12-10T10:01:56;25.77;;;11.63;;
67028;SDS011;53934;52.142;11.738;2022-12-10T10:04:28;26.17;;;12.13;;
67028;SDS011;53934;52.142;11.738;2022-12-10T10:06:55;27.15;;;12.00;;
67028;SDS011;53934;52.142;11.738;2022-12-10T10:09:22;26.10;;;11.93;;
67028;SDS011;53934;52.142;11.738;2022-12-10T10:11:49;23.10;;;11.55;;
67028;SDS011;53934;52.142;11.738;2022-12-10T10:14:17;24.05;;;11.20;;
67028;SDS011;53934;52.142;11.738;2022-12-10T10:16:53;23.77;;;10.68;;
67028;SDS011;53934;52.142;11.738;2022-12-10T10:19:25;28.33;;;12.55;;
67028;SDS011;53934;52.142;11.738;2022-12-10T10:21:55;34.13;;;12.38;;
67028;SDS011;53934;52.142;11.738;2022-12-10T10:24:33;22.52;;;10.98;;
67028;SDS011;53934;52.142;11.738;2022-12-10T10:27:01;24.23;;;11.43;;
67028;SDS011;53934;52.142;11.738;2022-12-10T10:29:39;23.90;;;12.48;;
67028;SDS011;53934;52.142;11.738;2022-12-10T10:32:13;22.60;;;10.70;;
67028;SDS011;53934;52.142;11.738;2022-12-10T10:34:42;31.45;;;14.13;;
67028;SDS011;53934;52.142;11.738;2022-12-10T10:37:13;23.98;;;10.93;;
67028;SDS011;53934;52.142;11.738;2022-12-10T10:39:45;27.95;;;11.75;;
67028;SDS011;53934;52.142;11.738;2022-12-10T10:42:26;29.45;;;12.88;;
67028;SDS011;53934;52.142;11.738;2022-12-10T10:45:03;27.33;;;13.18;;
67028;SDS011;53934;52.142;11.738;2022-12-10T10:47:32;30.77;;;14.90;;
67028;SDS011;53934;52.142;11.738;2022-12-10T10:50:02;28.13;;;13.15;;
67028;SDS011;53934;52.142;11.738;2022-12-10T10:52:35;25.58;;;12.27;;
67028;SDS011;53934;52.142;11.738;2022-12-10T10:55:04;27.50;;;12.57;;
67028;SDS011;53934;52.142;11.738;2022-12-10T10:57:32;33.58;;;15.35;;
67028;SDS011;53934;52.142;11.738;2022-12-10T11:00:04;28.92;;;15.55;;
67028;SDS011;53934;52.142;11.738;2022-12-10T11:02:34;23.33;;;11.60;;
67028;SDS011;53934;52.142;11.738;2022-12-10T11:05:04;24.27;;;11.25;;
67028;SDS011;53934;52.142;11.738;2022-12-10T11:07:33;44.17;;;18.30;;
67028;SDS011;53934;52.142;11.738;2022-12-10T11:10:02;41.28;;;17.20;;
67028;SDS011;53934;52.142;11.738;2022-12-10T11:12:33;31.60;;;13.48;;
67028;SDS011;53934;52.142;11.738;2022-12-10T11:15:03;29.15;;;13.80;;
67028;SDS011;53934;52.142;11.738;2022-12-10T11:20:22;29.58;;;13.20;;
67028;SDS011;53934;52.142;11.738;2022-12-10T11:22:51;21.70;;;11.05;;
67028;SDS011;53934;52.142;11.738;2022-12-10T11:25:19;28.50;;;13.18;;
67028;SDS011;53934;52.142;11.738;2022-12-10T11:27:58;34.90;;;15.32;;
67028;SDS011;53934;52.142;11.738;2022-12-10T11:30:29;26.50;;;14.23;;
67028;SDS011;53934;52.142;11.738;2022-12-10T11:33:04;29.65;;;13.93;;
67028;SDS011;53934;52.142;11.738;2022-12-10T11:35:48;25.80;;;12.82;;
67028;SDS011;53934;52.142;11.738;2022-12-10T11:38:22;23.80;;;11.45;;
67028;SDS011;53934;52.142;11.738;2022-12-10T11:40:55;23.27;;;11.52;;
67028;SDS011;53934;52.142;11.738;2022-12-10T11:46:24;24.55;;;11.48;;
67028;SDS011;53934;52.142;11.738;2022-12-10T11:49:10;29.02;;;12.27;;
67028;SDS011;53934;52.142;11.738;2022-12-10T11:51:46;25.60;;;12.32;;
67028;SDS011;53934;52.142;11.738;2022-12-10T11:54:24;27.75;;;13.27;;
67028;SDS011;53934;52.142;11.738;2022-12-10T11:57:06;28.05;;;13.50;;
67028;SDS011;53934;52.142;11.738;2022-12-10T11:59:40;29.02;;;13.68;;
67028;SDS011;53934;52.142;11.738;2022-12-10T12:02:22;26.30;;;12.80;;
67028;SDS011;53934;52.142;11.738;2022-12-10T12:05:06;26.40;;;12.95;;
67028;SDS011;53934;52.142;11.738;2022-12-10T12:07:48;26.10;;;13.02;;
67028;SDS011;53934;52.142;11.738;2022-12-10T12:13:12;24.98;;;12.30;;
67028;SDS011;53934;52.142;11.738;2022-12-10T12:15:42;22.80;;;11.20;;
67028;SDS011;53934;52.142;11.738;2022-12-10T12:18:16;25.08;;;11.75;;
67028;SDS011;53934;52.142;11.738;2022-12-10T12:20:48;24.80;;;11.57;;
67028;SDS011;53934;52.142;11.738;2022-12-10T12:25:51;21.33;;;10.50;;
67028;SDS011;53934;52.142;11.738;2022-12-10T12:28:22;20.15;;;10.43;;
67028;SDS011;53934;52.142;11.738;2022-12-10T12:30:57;20.77;;;10.20;;
67028;SDS011;53934;52.142;11.738;2022-12-10T12:33:35;23.35;;;10.82;;
67028;SDS011;53934;52.142;11.738;2022-12-10T12:36:08;22.80;;;11.52;;
67028;SDS011;53934;52.142;11.738;2022-12-10T12:38:39;20.48;;;10.55;;
67028;SDS011;53934;52.142;11.738;2022-12-10T12:41:13;22.40;;;11.23;;
67028;SDS011;53934;52.142;11.738;2022-12-10T12:43:44;27.17;;;12.88;;
67028;SDS011;53934;52.142;11.738;2022-12-10T12:46:18;21.65;;;11.55;;
67028;SDS011;53934;52.142;11.738;2022-12-10T12:48:50;21.60;;;12.25;;
67028;SDS011;53934;52.142;11.738;2022-12-10T12:51:23;19.98;;;11.52;;
67028;SDS011;53934;52.142;11.738;2022-12-10T12:53:55;20.48;;;11.25;;
67028;SDS011;53934;52.142;11.738;2022-12-10T12:56:24;21.65;;;12.77;;
67028;SDS011;53934;52.142;11.738;2022-12-10T12:59:06;24.38;;;12.85;;
67028;SDS011;53934;52.142;11.738;2022-12-10T13:01:42;22.52;;;11.85;;
67028;SDS011;53934;52.142;11.738;2022-12-10T13:04:14;21.05;;;11.38;;
67028;SDS011;53934;52.142;11.738;2022-12-10T13:06:41;20.15;;;11.00;;
67028;SDS011;53934;52.142;11.738;2022-12-10T13:09:17;22.67;;;11.73;;
67028;SDS011;53934;52.142;11.738;2022-12-10T13:14:54;20.10;;;11.30;;
67028;SDS011;53934;52.142;11.738;2022-12-10T13:17:28;22.70;;;11.27;;
67028;SDS011;53934;52.142;11.738;2022-12-10T13:22:59;25.00;;;12.82;;
67028;SDS011;53934;52.142;11.738;2022-12-10T13:25:39;21.90;;;10.65;;
67028;SDS011;53934;52.142;11.738;2022-12-10T13:31:08;21.05;;;10.75;;
67028;SDS011;53934;52.142;11.738;2022-12-10T13:33:45;24.70;;;12.95;;
67028;SDS011;53934;52.142;11.738;2022-12-10T13:36:20;19.52;;;10.73;;
67028;SDS011;53934;52.142;11.738;2022-12-10T13:39:11;17.02;;;9.82;;
67028;SDS011;53934;52.142;11.738;2022-12-10T13:45:16;21.17;;;10.48;;
67028;SDS011;53934;52.142;11.738;2022-12-10T13:47:52;34.97;;;17.02;;
67028;SDS011;53934;52.142;11.738;2022-12-10T13:50:20;59.15;;;26.50;;
67028;SDS011;53934;52.142;11.738;2022-12-10T13:53:03;38.40;;;18.85;;
67028;SDS011;53934;52.142;11.738;2022-12-10T13:55:42;36.72;;;18.38;;
67028;SDS011;53934;52.142;11.738;2022-12-10T13:58:26;30.90;;;16.90;;
67028;SDS011;53934;52.142;11.738;2022-12-10T14:01:06;38.88;;;20.98;;
67028;SDS011;53934;52.142;11.738;2022-12-10T14:03:55;37.60;;;22.60;;
67028;SDS011;53934;52.142;11.738;2022-12-10T14:06:44;26.50;;;15.20;;
67028;SDS011;53934;52.142;11.738;2022-12-10T14:09:13;26.55;;;14.63;;
67028;SDS011;53934;52.142;11.738;2022-12-10T14:11:45;23.42;;;12.90;;
67028;SDS011;53934;52.142;11.738;2022-12-10T14:14:25;27.95;;;14.02;;
67028;SDS011;53934;52.142;11.738;2022-12-10T14:16:59;29.13;;;15.20;;
67028;SDS011;53934;52.142;11.738;2022-12-10T14:19:26;24.13;;;13.38;;
67028;SDS011;53934;52.142;11.738;2022-12-10T14:21:54;22.77;;;10.95;;
67028;SDS011;53934;52.142;11.738;2022-12-10T14:24:30;20.13;;;10.73;;
67028;SDS011;53934;52.142;11.738;2022-12-10T14:27:00;20.30;;;10.82;;
67028;SDS011;53934;52.142;11.738;2022-12-10T14:29:29;21.15;;;10.27;;
67028;SDS011;53934;52.142;11.738;2022-12-10T14:31:56;21.95;;;11.10;;
67028;SDS011;53934;52.142;11.738;2022-12-10T14:34:24;19.55;;;10.18;;
67028;SDS011;53934;52.142;11.738;2022-12-10T14:36:53;20.90;;;10.23;;
67028;SDS011;53934;52.142;11.738;2022-12-10T14:39:21;23.55;;;11.02;;
67028;SDS011;53934;52.142;11.738;2022-12-10T14:41:55;22.08;;;10.63;;
67028;SDS011;53934;52.142;11.738;2022-12-10T14:44:23;19.95;;;10.00;;
67028;SDS011;53934;52.142;11.738;2022-12-10T14:46:51;19.60;;;10.57;;
67028;SDS011;53934;52.142;11.738;2022-12-10T14:49:19;28.48;;;12.05;;